Terminal Aerodrome Forecast
Issued by NWS

Home | Current Version | Previous Version | Text Only | Print | Product List | Glossary On
Versions: 1 2 3 4 5 6 7 8 9 10 11 12 13 14 15 16 17 18 19 20 21 22 23 24 25 26 27 28
000
FTUS44 KHGX 291130
TAFSGR
TAF
KSGR 291130Z 2912/3012 14010KT 6SM BR BKN021 OVC100
     FM291500 16012KT P6SM SCT015 BKN025
     FM291800 16014G24KT P6SM SCT035
     FM300100 15014KT P6SM VCTS SCT040CB BKN100
     FM300600 16014KT 5SM TSRA BKN025CB=

USA.gov is the U.S. government's official web portal to all federal, state and local government web resources and services.